sensor_id;sensor_type;location;lat;lon;timestamp;pressure;altitude;pressure_sealevel;temperature;humidity
26087;BME280;13851;43.434;28.338;2022-08-19T00:00:20;99351.72;;;26.93;100.00
26087;BME280;13851;43.434;28.338;2022-08-19T00:02:46;99334.66;;;26.65;100.00
26087;BME280;13851;43.434;28.338;2022-08-19T00:05:13;99335.81;;;26.83;100.00
26087;BME280;13851;43.434;28.338;2022-08-19T00:07:41;99378.19;;;26.87;100.00
26087;BME280;13851;43.434;28.338;2022-08-19T00:10:09;99346.75;;;26.85;100.00
26087;BME280;13851;43.434;28.338;2022-08-19T00:12:37;99357.81;;;26.76;100.00
26087;BME280;13851;43.434;28.338;2022-08-19T00:15:05;99156.91;;;25.50;100.00
26087;BME280;13851;43.434;28.338;2022-08-19T00:17:31;99373.84;;;26.76;100.00
26087;BME280;13851;43.434;28.338;2022-08-19T00:19:57;99378.31;;;26.58;100.00
26087;BME280;13851;43.434;28.338;2022-08-19T00:22:23;99373.03;;;26.75;100.00
26087;BME280;13851;43.434;28.338;2022-08-19T00:24:49;99367.66;;;26.79;100.00
26087;BME280;13851;43.434;28.338;2022-08-19T00:27:14;99106.53;;;25.16;100.00
26087;BME280;13851;43.434;28.338;2022-08-19T00:29:40;99361.78;;;26.75;100.00
26087;BME280;13851;43.434;28.338;2022-08-19T00:32:06;99335.75;;;26.46;100.00
26087;BME280;13851;43.434;28.338;2022-08-19T00:34:31;99367.47;;;26.70;100.00
26087;BME280;13851;43.434;28.338;2022-08-19T00:36:57;99370.91;;;26.67;100.00
26087;BME280;13851;43.434;28.338;2022-08-19T00:39:23;99393.38;;;26.67;100.00
26087;BME280;13851;43.434;28.338;2022-08-19T00:41:50;99371.72;;;26.67;100.00
26087;BME280;13851;43.434;28.338;2022-08-19T00:46:44;99379.78;;;26.74;100.00
26087;BME280;13851;43.434;28.338;2022-08-19T00:49:27;99133.94;;;25.24;100.00
26087;BME280;13851;43.434;28.338;2022-08-19T00:52:00;99380.31;;;26.76;100.00
26087;BME280;13851;43.434;28.338;2022-08-19T00:54:27;99358.03;;;26.61;100.00
26087;BME280;13851;43.434;28.338;2022-08-19T00:56:53;99326.72;;;26.49;100.00
26087;BME280;13851;43.434;28.338;2022-08-19T00:59:19;99372.25;;;26.69;100.00
26087;BME280;13851;43.434;28.338;2022-08-19T01:01:46;99171.22;;;25.49;100.00
26087;BME280;13851;43.434;28.338;2022-08-19T01:04:12;99352.41;;;26.61;100.00
26087;BME280;13851;43.434;28.338;2022-08-19T01:06:39;99379.78;;;26.74;100.00
26087;BME280;13851;43.434;28.338;2022-08-19T01:09:06;99356.97;;;26.57;100.00
26087;BME280;13851;43.434;28.338;2022-08-19T01:11:36;99181.91;;;25.47;100.00
26087;BME280;13851;43.434;28.338;2022-08-19T01:14:04;99366.06;;;26.49;100.00
26087;BME280;13851;43.434;28.338;2022-08-19T01:16:31;99155.22;;;25.25;100.00
26087;BME280;13851;43.434;28.338;2022-08-19T01:18:57;99371.31;;;26.55;100.00
26087;BME280;13851;43.434;28.338;2022-08-19T01:23:58;99312.66;;;26.25;100.00
26087;BME280;13851;43.434;28.338;2022-08-19T01:26:25;99363.78;;;26.51;100.00
26087;BME280;13851;43.434;28.338;2022-08-19T01:28:53;99348.72;;;26.41;100.00
26087;BME280;13851;43.434;28.338;2022-08-19T01:31:24;99314.69;;;26.19;100.00
26087;BME280;13851;43.434;28.338;2022-08-19T01:33:52;99377.69;;;26.61;100.00
26087;BME280;13851;43.434;28.338;2022-08-19T01:36:30;99379.44;;;26.57;100.00
26087;BME280;13851;43.434;28.338;2022-08-19T01:38:59;99379.22;;;26.53;100.00
26087;BME280;13851;43.434;28.338;2022-08-19T01:41:25;99354.59;;;26.40;100.00
26087;BME280;13851;43.434;28.338;2022-08-19T01:43:52;99361.03;;;26.46;100.00
26087;BME280;13851;43.434;28.338;2022-08-19T01:46:18;99371.63;;;26.54;100.00
26087;BME280;13851;43.434;28.338;2022-08-19T01:48:44;99366.81;;;26.54;100.00
26087;BME280;13851;43.434;28.338;2022-08-19T01:51:11;99303.22;;;26.15;100.00
26087;BME280;13851;43.434;28.338;2022-08-19T01:53:38;99356.88;;;26.14;100.00
26087;BME280;13851;43.434;28.338;2022-08-19T01:56:04;98828.97;;;23.09;100.00
26087;BME280;13851;43.434;28.338;2022-08-19T01:58:35;99338.25;;;26.23;100.00
26087;BME280;13851;43.434;28.338;2022-08-19T02:01:03;99331.53;;;26.19;100.00
26087;BME280;13851;43.434;28.338;2022-08-19T02:03:29;99354.38;;;26.36;100.00
26087;BME280;13851;43.434;28.338;2022-08-19T02:05:56;99347.91;;;26.36;100.00
26087;BME280;13851;43.434;28.338;2022-08-19T02:08:23;99355.72;;;26.44;100.00
26087;BME280;13851;43.434;28.338;2022-08-19T02:10:49;99167.00;;;25.22;100.00
26087;BME280;13851;43.434;28.338;2022-08-19T02:13:15;99329.88;;;26.18;100.00
26087;BME280;13851;43.434;28.338;2022-08-19T02:15:41;99354.44;;;26.31;100.00
26087;BME280;13851;43.434;28.338;2022-08-19T02:18:07;99139.75;;;24.99;100.00
26087;BME280;13851;43.434;28.338;2022-08-19T02:20:33;99296.72;;;25.96;100.00
26087;BME280;13851;43.434;28.338;2022-08-19T02:22:59;99359.50;;;26.29;100.00
26087;BME280;13851;43.434;28.338;2022-08-19T02:25:27;99334.97;;;26.16;100.00
26087;BME280;13851;43.434;28.338;2022-08-19T02:27:52;99360.94;;;26.27;100.00
26087;BME280;13851;43.434;28.338;2022-08-19T02:30:19;99308.22;;;25.95;100.00
26087;BME280;13851;43.434;28.338;2022-08-19T02:32:46;99283.47;;;25.73;100.00
26087;BME280;13851;43.434;28.338;2022-08-19T02:35:15;99294.84;;;25.86;100.00
26087;BME280;13851;43.434;28.338;2022-08-19T02:37:41;99350.09;;;26.15;100.00
26087;BME280;13851;43.434;28.338;2022-08-19T02:40:27;99299.28;;;25.92;100.00
26087;BME280;13851;43.434;28.338;2022-08-19T02:42:53;99143.16;;;24.96;100.00
26087;BME280;13851;43.434;28.338;2022-08-19T02:45:20;99356.81;;;26.19;100.00
26087;BME280;13851;43.434;28.338;2022-08-19T02:47:45;99355.72;;;26.15;100.00
26087;BME280;13851;43.434;28.338;2022-08-19T02:50:11;99343.91;;;26.18;100.00
26087;BME280;13851;43.434;28.338;2022-08-19T02:52:38;99353.13;;;26.24;100.00
26087;BME280;13851;43.434;28.338;2022-08-19T02:55:04;99348.03;;;26.26;100.00
26087;BME280;13851;43.434;28.338;2022-08-19T02:57:31;99284.91;;;25.70;100.00
26087;BME280;13851;43.434;28.338;2022-08-19T02:59:57;99304.84;;;25.98;100.00
26087;BME280;13851;43.434;28.338;2022-08-19T03:02:23;99377.19;;;26.30;100.00
26087;BME280;13851;43.434;28.338;2022-08-19T03:04:49;99386.44;;;26.30;100.00
26087;BME280;13851;43.434;28.338;2022-08-19T03:07:16;99342.97;;;26.28;100.00
26087;BME280;13851;43.434;28.338;2022-08-19T03:09:42;99336.19;;;26.29;100.00
26087;BME280;13851;43.434;28.338;2022-08-19T03:12:09;99134.53;;;24.87;100.00
26087;BME280;13851;43.434;28.338;2022-08-19T03:14:36;99343.59;;;26.19;100.00
26087;BME280;13851;43.434;28.338;2022-08-19T03:17:03;99257.38;;;25.72;100.00
26087;BME280;13851;43.434;28.338;2022-08-19T03:19:30;99334.09;;;26.15;100.00
26087;BME280;13851;43.434;28.338;2022-08-19T03:21:57;99346.41;;;26.19;100.00
26087;BME280;13851;43.434;28.338;2022-08-19T03:24:23;99351.13;;;26.24;100.00
26087;BME280;13851;43.434;28.338;2022-08-19T03:26:54;99352.09;;;26.14;100.00
26087;BME280;13851;43.434;28.338;2022-08-19T03:29:23;99359.63;;;26.19;100.00
26087;BME280;13851;43.434;28.338;2022-08-19T03:31:49;99329.03;;;26.17;100.00
26087;BME280;13851;43.434;28.338;2022-08-19T03:34:24;99335.94;;;26.25;100.00
26087;BME280;13851;43.434;28.338;2022-08-19T03:36:55;99338.53;;;26.22;100.00
26087;BME280;13851;43.434;28.338;2022-08-19T03:39:23;99362.88;;;26.31;100.00
26087;BME280;13851;43.434;28.338;2022-08-19T03:41:50;99370.09;;;26.37;100.00
26087;BME280;13851;43.434;28.338;2022-08-19T03:44:21;99376.84;;;26.36;100.00
26087;BME280;13851;43.434;28.338;2022-08-19T03:46:53;99373.50;;;26.34;100.00
26087;BME280;13851;43.434;28.338;2022-08-19T03:49:21;99386.22;;;26.27;100.00
26087;BME280;13851;43.434;28.338;2022-08-19T03:51:48;99168.00;;;25.02;100.00
26087;BME280;13851;43.434;28.338;2022-08-19T03:54:16;99375.72;;;26.37;100.00
26087;BME280;13851;43.434;28.338;2022-08-19T03:56:44;99386.94;;;26.37;100.00
26087;BME280;13851;43.434;28.338;2022-08-19T03:59:18;99348.88;;;26.26;100.00
26087;BME280;13851;43.434;28.338;2022-08-19T04:01:45;99386.03;;;26.47;100.00
26087;BME280;13851;43.434;28.338;2022-08-19T04:04:11;99354.63;;;26.16;100.00
26087;BME280;13851;43.434;28.338;2022-08-19T04:06:37;99394.63;;;26.56;100.00
26087;BME280;13851;43.434;28.338;2022-08-19T04:09:07;99390.13;;;26.55;100.00
26087;BME280;13851;43.434;28.338;2022-08-19T04:11:45;99389.56;;;26.58;100.00
26087;BME280;13851;43.434;28.338;2022-08-19T04:14:17;99389.31;;;26.54;100.00
26087;BME280;13851;43.434;28.338;2022-08-19T04:16:44;99372.81;;;26.48;100.00
26087;BME280;13851;43.434;28.338;2022-08-19T04:19:10;99393.59;;;26.70;100.00
26087;BME280;13851;43.434;28.338;2022-08-19T04:21:36;99382.97;;;26.67;100.00
26087;BME280;13851;43.434;28.338;2022-08-19T04:24:02;99400.88;;;26.72;100.00
26087;BME280;13851;43.434;28.338;2022-08-19T04:26:31;99423.03;;;26.78;100.00
26087;BME280;13851;43.434;28.338;2022-08-19T04:29:03;99376.13;;;26.74;100.00
26087;BME280;13851;43.434;28.338;2022-08-19T04:31:32;99393.41;;;26.86;100.00
26087;BME280;13851;43.434;28.338;2022-08-19T04:34:04;99404.38;;;27.06;100.00
26087;BME280;13851;43.434;28.338;2022-08-19T04:36:33;99435.56;;;27.10;100.00
26087;BME280;13851;43.434;28.338;2022-08-19T04:39:05;99379.97;;;26.83;100.00
26087;BME280;13851;43.434;28.338;2022-08-19T04:41:33;99407.63;;;27.18;100.00
26087;BME280;13851;43.434;28.338;2022-08-19T04:44:17;99399.56;;;27.07;100.00
26087;BME280;13851;43.434;28.338;2022-08-19T04:46:47;99416.75;;;27.29;100.00
26087;BME280;13851;43.434;28.338;2022-08-19T04:49:14;99433.00;;;27.32;100.00
26087;BME280;13851;43.434;28.338;2022-08-19T04:51:44;99403.66;;;27.38;100.00
26087;BME280;13851;43.434;28.338;2022-08-19T04:54:11;99408.66;;;27.41;100.00
26087;BME280;13851;43.434;28.338;2022-08-19T04:56:39;99418.19;;;27.45;100.00
26087;BME280;13851;43.434;28.338;2022-08-19T04:59:05;99417.56;;;27.48;100.00
26087;BME280;13851;43.434;28.338;2022-08-19T05:01:33;99422.50;;;27.57;100.00
26087;BME280;13851;43.434;28.338;2022-08-19T05:04:00;99401.66;;;27.58;100.00
26087;BME280;13851;43.434;28.338;2022-08-19T05:06:27;99422.81;;;27.74;100.00
26087;BME280;13851;43.434;28.338;2022-08-19T05:08:54;99435.38;;;27.82;100.00
26087;BME280;13851;43.434;28.338;2022-08-19T05:11:22;99428.28;;;27.84;100.00
26087;BME280;13851;43.434;28.338;2022-08-19T05:13:49;99433.97;;;27.79;100.00
26087;BME280;13851;43.434;28.338;2022-08-19T05:16:17;99419.75;;;27.89;100.00
26087;BME280;13851;43.434;28.338;2022-08-19T05:18:43;99413.69;;;27.82;100.00
26087;BME280;13851;43.434;28.338;2022-08-19T05:21:29;99406.28;;;27.86;100.00
26087;BME280;13851;43.434;28.338;2022-08-19T05:24:14;99391.91;;;27.69;100.00
26087;BME280;13851;43.434;28.338;2022-08-19T05:26:44;99233.50;;;26.84;100.00
26087;BME280;13851;43.434;28.338;2022-08-19T05:29:15;99389.66;;;27.71;100.00
26087;BME280;13851;43.434;28.338;2022-08-19T05:31:41;99431.50;;;28.10;100.00
26087;BME280;13851;43.434;28.338;2022-08-19T05:34:09;99449.44;;;28.14;100.00
26087;BME280;13851;43.434;28.338;2022-08-19T05:36:40;99431.63;;;28.19;100.00
26087;BME280;13851;43.434;28.338;2022-08-19T05:39:19;99419.19;;;28.20;100.00
26087;BME280;13851;43.434;28.338;2022-08-19T05:41:56;99385.16;;;28.03;100.00
26087;BME280;13851;43.434;28.338;2022-08-19T05:44:27;99425.59;;;28.26;100.00
26087;BME280;13851;43.434;28.338;2022-08-19T05:46:55;99413.78;;;28.23;100.00
26087;BME280;13851;43.434;28.338;2022-08-19T05:49:22;99432.44;;;28.38;100.00
26087;BME280;13851;43.434;28.338;2022-08-19T05:51:49;99441.50;;;28.49;100.00
26087;BME280;13851;43.434;28.338;2022-08-19T05:54:15;99390.41;;;28.23;100.00
26087;BME280;13851;43.434;28.338;2022-08-19T05:56:41;99437.88;;;28.62;100.00
26087;BME280;13851;43.434;28.338;2022-08-19T05:59:09;99410.09;;;28.42;100.00
26087;BME280;13851;43.434;28.338;2022-08-19T06:01:38;99430.78;;;28.51;100.00
26087;BME280;13851;43.434;28.338;2022-08-19T06:04:05;99425.19;;;28.32;100.00
26087;BME280;13851;43.434;28.338;2022-08-19T06:06:32;99414.94;;;28.22;100.00
26087;BME280;13851;43.434;28.338;2022-08-19T06:09:03;99399.38;;;28.25;100.00
26087;BME280;13851;43.434;28.338;2022-08-19T06:11:42;99124.25;;;26.64;100.00
26087;BME280;13851;43.434;28.338;2022-08-19T06:14:12;99426.50;;;28.54;100.00
26087;BME280;13851;43.434;28.338;2022-08-19T06:16:40;99424.72;;;28.58;100.00
26087;BME280;13851;43.434;28.338;2022-08-19T06:19:10;99420.94;;;28.48;100.00
26087;BME280;13851;43.434;28.338;2022-08-19T06:21:37;99436.09;;;28.53;100.00
26087;BME280;13851;43.434;28.338;2022-08-19T06:24:05;99397.78;;;28.38;100.00
26087;BME280;13851;43.434;28.338;2022-08-19T06:26:38;99420.97;;;28.62;100.00
26087;BME280;13851;43.434;28.338;2022-08-19T06:29:09;99400.19;;;28.44;100.00
26087;BME280;13851;43.434;28.338;2022-08-19T06:31:35;99390.38;;;28.69;100.00
26087;BME280;13851;43.434;28.338;2022-08-19T06:34:03;99430.78;;;28.92;100.00
26087;BME280;13851;43.434;28.338;2022-08-19T06:36:32;99418.44;;;29.16;100.00
26087;BME280;13851;43.434;28.338;2022-08-19T06:39:10;99416.31;;;29.35;100.00
26087;BME280;13851;43.434;28.338;2022-08-19T06:41:39;99421.94;;;29.49;100.00
26087;BME280;13851;43.434;28.338;2022-08-19T06:44:06;99409.59;;;29.59;100.00
26087;BME280;13851;43.434;28.338;2022-08-19T06:46:32;99408.50;;;29.68;100.00
26087;BME280;13851;43.434;28.338;2022-08-19T06:48:59;99272.03;;;28.92;100.00
26087;BME280;13851;43.434;28.338;2022-08-19T06:51:25;99415.75;;;29.83;100.00
26087;BME280;13851;43.434;28.338;2022-08-19T06:53:54;99368.25;;;29.63;100.00
26087;BME280;13851;43.434;28.338;2022-08-19T06:56:23;99409.72;;;29.76;100.00
26087;BME280;13851;43.434;28.338;2022-08-19T06:58:50;99415.13;;;29.86;100.00
26087;BME280;13851;43.434;28.338;2022-08-19T07:01:21;99397.22;;;29.91;100.00
26087;BME280;13851;43.434;28.338;2022-08-19T07:03:47;99395.22;;;30.14;100.00
26087;BME280;13851;43.434;28.338;2022-08-19T07:06:16;99372.63;;;29.91;100.00
26087;BME280;13851;43.434;28.338;2022-08-19T07:08:44;99428.44;;;30.39;100.00
26087;BME280;13851;43.434;28.338;2022-08-19T07:11:15;99427.72;;;30.56;100.00
26087;BME280;13851;43.434;28.338;2022-08-19T07:13:43;99425.19;;;30.54;100.00
26087;BME280;13851;43.434;28.338;2022-08-19T07:16:12;99412.13;;;30.67;100.00
26087;BME280;13851;43.434;28.338;2022-08-19T07:18:47;99405.78;;;30.62;100.00
26087;BME280;13851;43.434;28.338;2022-08-19T07:21:17;99355.09;;;30.34;100.00
26087;BME280;13851;43.434;28.338;2022-08-19T07:23:45;99396.97;;;30.63;100.00
26087;BME280;13851;43.434;28.338;2022-08-19T07:26:20;99404.38;;;30.82;100.00
26087;BME280;13851;43.434;28.338;2022-08-19T07:28:47;99407.91;;;30.96;100.00
26087;BME280;13851;43.434;28.338;2022-08-19T07:31:20;99396.28;;;30.97;100.00
26087;BME280;13851;43.434;28.338;2022-08-19T07:33:48;99394.78;;;31.09;100.00
26087;BME280;13851;43.434;28.338;2022-08-19T07:36:23;99421.66;;;31.28;100.00
26087;BME280;13851;43.434;28.338;2022-08-19T07:38:52;99409.34;;;31.33;100.00
26087;BME280;13851;43.434;28.338;2022-08-19T07:41:25;99397.03;;;31.29;100.00
26087;BME280;13851;43.434;28.338;2022-08-19T07:43:56;99225.63;;;30.36;100.00
26087;BME280;13851;43.434;28.338;2022-08-19T07:46:21;99412.19;;;31.68;100.00
26087;BME280;13851;43.434;28.338;2022-08-19T07:48:55;99389.22;;;31.69;100.00
26087;BME280;13851;43.434;28.338;2022-08-19T07:51:21;99412.34;;;31.80;100.00
26087;BME280;13851;43.434;28.338;2022-08-19T07:53:51;99434.38;;;31.92;100.00
26087;BME280;13851;43.434;28.338;2022-08-19T07:56:19;99422.03;;;32.05;100.00
26087;BME280;13851;43.434;28.338;2022-08-19T07:58:47;99266.97;;;31.06;100.00
26087;BME280;13851;43.434;28.338;2022-08-19T08:01:22;99417.00;;;32.11;100.00
26087;BME280;13851;43.434;28.338;2022-08-19T08:03:50;99376.53;;;32.01;100.00
26087;BME280;13851;43.434;28.338;2022-08-19T08:06:39;99419.13;;;32.31;100.00
26087;BME280;13851;43.434;28.338;2022-08-19T08:09:27;99400.47;;;32.30;100.00
26087;BME280;13851;43.434;28.338;2022-08-19T08:12:19;99383.25;;;32.44;100.00
26087;BME280;13851;43.434;28.338;2022-08-19T08:14:49;99389.09;;;32.47;100.00
26087;BME280;13851;43.434;28.338;2022-08-19T08:17:18;99383.84;;;32.67;100.00
26087;BME280;13851;43.434;28.338;2022-08-19T08:19:45;99387.63;;;32.71;100.00
26087;BME280;13851;43.434;28.338;2022-08-19T08:22:15;99395.56;;;32.86;100.00
26087;BME280;13851;43.434;28.338;2022-08-19T08:25:04;99390.38;;;32.88;100.00
26087;BME280;13851;43.434;28.338;2022-08-19T08:27:30;99380.88;;;32.84;100.00
26087;BME280;13851;43.434;28.338;2022-08-19T08:29:57;99352.63;;;32.67;100.00
26087;BME280;13851;43.434;28.338;2022-08-19T08:32:24;99394.16;;;33.01;100.00
26087;BME280;13851;43.434;28.338;2022-08-19T08:34:52;99351.69;;;32.92;100.00
26087;BME280;13851;43.434;28.338;2022-08-19T08:37:17;99395.88;;;33.23;100.00
26087;BME280;13851;43.434;28.338;2022-08-19T08:39:43;99393.59;;;33.37;100.00
26087;BME280;13851;43.434;28.338;2022-08-19T08:42:22;99397.94;;;33.43;100.00
26087;BME280;13851;43.434;28.338;2022-08-19T08:47:25;99382.06;;;33.42;100.00
26087;BME280;13851;43.434;28.338;2022-08-19T08:50:08;99387.81;;;33.54;100.00
26087;BME280;13851;43.434;28.338;2022-08-19T08:52:44;99383.94;;;33.59;100.00
26087;BME280;13851;43.434;28.338;2022-08-19T08:55:23;99348.53;;;33.56;100.00
26087;BME280;13851;43.434;28.338;2022-08-19T09:00:31;99385.81;;;33.88;100.00
26087;BME280;13851;43.434;28.338;2022-08-19T09:02:58;99374.44;;;33.88;100.00
26087;BME280;13851;43.434;28.338;2022-08-19T09:05:59;99385.25;;;34.16;100.00
26087;BME280;13851;43.434;28.338;2022-08-19T09:08:32;99399.47;;;34.28;100.00
26087;BME280;13851;43.434;28.338;2022-08-19T09:11:05;99378.59;;;34.11;100.00
26087;BME280;13851;43.434;28.338;2022-08-19T09:13:46;99355.06;;;33.90;100.00
26087;BME280;13851;43.434;28.338;2022-08-19T09:16:21;99391.38;;;34.05;100.00
26087;BME280;13851;43.434;28.338;2022-08-19T09:18:52;99400.38;;;34.07;100.00
26087;BME280;13851;43.434;28.338;2022-08-19T09:21:23;99404.97;;;34.00;100.00
26087;BME280;13851;43.434;28.338;2022-08-19T09:23:50;99370.28;;;33.73;100.00
26087;BME280;13851;43.434;28.338;2022-08-19T09:26:18;99402.59;;;34.02;100.00
26087;BME280;13851;43.434;28.338;2022-08-19T09:28:47;99404.78;;;34.17;100.00
26087;BME280;13851;43.434;28.338;2022-08-19T09:31:20;99389.44;;;34.30;100.00
26087;BME280;13851;43.434;28.338;2022-08-19T09:33:47;99399.25;;;34.33;100.00
26087;BME280;13851;43.434;28.338;2022-08-19T09:36:16;99201.34;;;33.04;100.00
26087;BME280;13851;43.434;28.338;2022-08-19T09:38:43;99414.69;;;34.44;100.00
26087;BME280;13851;43.434;28.338;2022-08-19T09:41:20;99403.59;;;34.51;100.00
26087;BME280;13851;43.434;28.338;2022-08-19T09:43:48;99387.72;;;34.50;100.00
26087;BME280;13851;43.434;28.338;2022-08-19T09:46:18;99380.38;;;34.61;100.00
26087;BME280;13851;43.434;28.338;2022-08-19T09:48:52;99389.38;;;34.88;100.00
26087;BME280;13851;43.434;28.338;2022-08-19T09:51:21;99411.47;;;35.15;100.00
26087;BME280;13851;43.434;28.338;2022-08-19T09:53:47;99418.72;;;35.13;100.00
26087;BME280;13851;43.434;28.338;2022-08-19T09:56:17;99392.25;;;35.00;100.00
26087;BME280;13851;43.434;28.338;2022-08-19T09:58:43;99415.28;;;35.07;100.00
26087;BME280;13851;43.434;28.338;2022-08-19T10:01:15;99422.13;;;34.94;100.00
26087;BME280;13851;43.434;28.338;2022-08-19T10:03:41;99416.94;;;34.96;100.00
26087;BME280;13851;43.434;28.338;2022-08-19T10:06:06;99421.66;;;34.92;100.00
26087;BME280;13851;43.434;28.338;2022-08-19T10:08:36;99407.19;;;34.73;100.00
26087;BME280;13851;43.434;28.338;2022-08-19T10:11:04;99404.34;;;34.60;100.00
26087;BME280;13851;43.434;28.338;2022-08-19T10:13:31;99432.19;;;34.79;100.00
26087;BME280;13851;43.434;28.338;2022-08-19T10:16:15;99417.16;;;34.91;100.00
26087;BME280;13851;43.434;28.338;2022-08-19T10:18:41;99386.53;;;34.63;100.00
26087;BME280;13851;43.434;28.338;2022-08-19T10:21:24;99421.06;;;35.11;100.00
26087;BME280;13851;43.434;28.338;2022-08-19T10:23:53;99420.13;;;35.19;98.16
26087;BME280;13851;43.434;28.338;2022-08-19T10:26:34;99426.66;;;35.07;100.00
26087;BME280;13851;43.434;28.338;2022-08-19T10:29:03;99396.16;;;34.71;100.00
26087;BME280;13851;43.434;28.338;2022-08-19T10:31:31;99414.88;;;34.72;100.00
26087;BME280;13851;43.434;28.338;2022-08-19T10:33:57;99416.88;;;34.59;100.00
26087;BME280;13851;43.434;28.338;2022-08-19T10:36:32;99410.03;;;34.60;100.00
26087;BME280;13851;43.434;28.338;2022-08-19T10:38:59;99409.75;;;34.53;100.00
26087;BME280;13851;43.434;28.338;2022-08-19T10:41:32;99150.47;;;32.99;100.00
26087;BME280;13851;43.434;28.338;2022-08-19T10:44:07;99416.19;;;34.75;100.00
26087;BME280;13851;43.434;28.338;2022-08-19T10:46:37;99428.75;;;34.74;100.00
26087;BME280;13851;43.434;28.338;2022-08-19T10:49:04;99432.41;;;34.62;100.00
26087;BME280;13851;43.434;28.338;2022-08-19T10:51:31;99411.63;;;34.49;100.00
26087;BME280;13851;43.434;28.338;2022-08-19T10:54:15;99390.13;;;34.27;100.00
26087;BME280;13851;43.434;28.338;2022-08-19T10:56:42;99410.28;;;34.34;100.00
26087;BME280;13851;43.434;28.338;2022-08-19T10:59:19;99349.06;;;33.29;100.00
26087;BME280;13851;43.434;28.338;2022-08-19T11:01:47;99436.69;;;33.39;100.00
26087;BME280;13851;43.434;28.338;2022-08-19T11:04:13;99411.78;;;33.66;100.00
26087;BME280;13851;43.434;28.338;2022-08-19T11:06:40;99397.03;;;33.51;100.00
26087;BME280;13851;43.434;28.338;2022-08-19T11:09:08;99413.28;;;33.42;100.00
26087;BME280;13851;43.434;28.338;2022-08-19T11:11:37;99419.13;;;33.46;100.00
26087;BME280;13851;43.434;28.338;2022-08-19T11:14:06;99361.13;;;33.47;100.00
26087;BME280;13851;43.434;28.338;2022-08-19T11:16:31;99410.53;;;33.96;100.00
26087;BME280;13851;43.434;28.338;2022-08-19T11:18:58;99412.84;;;34.48;100.00
26087;BME280;13851;43.434;28.338;2022-08-19T11:21:27;99365.19;;;34.57;100.00
26087;BME280;13851;43.434;28.338;2022-08-19T11:23:58;99389.63;;;35.20;100.00
26087;BME280;13851;43.434;28.338;2022-08-19T11:26:24;99226.75;;;34.61;100.00
26087;BME280;13851;43.434;28.338;2022-08-19T11:28:51;99418.06;;;35.97;100.00
26087;BME280;13851;43.434;28.338;2022-08-19T11:31:22;99414.13;;;36.01;100.00
26087;BME280;13851;43.434;28.338;2022-08-19T11:33:47;99406.69;;;36.12;100.00
26087;BME280;13851;43.434;28.338;2022-08-19T11:36:17;99419.91;;;36.33;100.00
26087;BME280;13851;43.434;28.338;2022-08-19T11:38:44;99422.19;;;36.55;100.00
26087;BME280;13851;43.434;28.338;2022-08-19T11:41:10;99281.31;;;35.72;100.00
26087;BME280;13851;43.434;28.338;2022-08-19T11:43:36;99418.78;;;36.22;100.00
26087;BME280;13851;43.434;28.338;2022-08-19T11:46:08;99410.66;;;35.67;100.00
26087;BME280;13851;43.434;28.338;2022-08-19T11:48:35;99394.06;;;35.57;100.00
26087;BME280;13851;43.434;28.338;2022-08-19T11:51:06;99400.63;;;35.86;100.00
26087;BME280;13851;43.434;28.338;2022-08-19T11:53:32;99412.41;;;36.12;100.00
26087;BME280;13851;43.434;28.338;2022-08-19T11:55:59;99398.78;;;36.06;100.00
26087;BME280;13851;43.434;28.338;2022-08-19T11:58:24;99408.53;;;35.92;100.00
26087;BME280;13851;43.434;28.338;2022-08-19T12:00:51;99379.91;;;36.01;100.00
26087;BME280;13851;43.434;28.338;2022-08-19T12:03:17;99380.31;;;36.15;100.00
26087;BME280;13851;43.434;28.338;2022-08-19T12:05:43;99399.06;;;36.44;100.00
26087;BME280;13851;43.434;28.338;2022-08-19T12:08:09;99397.03;;;36.45;100.00
26087;BME280;13851;43.434;28.338;2022-08-19T12:10:35;99374.63;;;36.15;99.74
26087;BME280;13851;43.434;28.338;2022-08-19T12:13:03;99380.09;;;36.08;100.00
26087;BME280;13851;43.434;28.338;2022-08-19T12:15:28;99392.38;;;36.25;100.00
26087;BME280;13851;43.434;28.338;2022-08-19T12:17:55;99403.06;;;36.28;100.00
26087;BME280;13851;43.434;28.338;2022-08-19T12:20:23;99197.56;;;34.64;100.00
26087;BME280;13851;43.434;28.338;2022-08-19T12:22:50;99376.13;;;35.57;100.00
26087;BME280;13851;43.434;28.338;2022-08-19T12:25:16;99329.56;;;35.25;100.00
26087;BME280;13851;43.434;28.338;2022-08-19T12:27:42;99374.44;;;35.28;100.00
26087;BME280;13851;43.434;28.338;2022-08-19T12:30:11;99373.91;;;35.50;100.00
26087;BME280;13851;43.434;28.338;2022-08-19T12:32:37;99384.38;;;35.34;100.00
26087;BME280;13851;43.434;28.338;2022-08-19T12:35:04;99383.16;;;35.47;100.00
26087;BME280;13851;43.434;28.338;2022-08-19T12:37:29;99356.75;;;35.62;100.00
26087;BME280;13851;43.434;28.338;2022-08-19T12:39:57;99052.19;;;34.01;100.00
26087;BME280;13851;43.434;28.338;2022-08-19T12:42:22;99391.84;;;36.19;100.00
26087;BME280;13851;43.434;28.338;2022-08-19T12:44:48;99388.59;;;36.21;100.00
26087;BME280;13851;43.434;28.338;2022-08-19T12:47:13;99399.34;;;36.55;100.00
26087;BME280;13851;43.434;28.338;2022-08-19T12:49:40;99397.13;;;36.64;100.00
26087;BME280;13851;43.434;28.338;2022-08-19T12:52:07;99391.97;;;36.86;99.88
26087;BME280;13851;43.434;28.338;2022-08-19T12:54:34;99386.25;;;36.54;100.00
26087;BME280;13851;43.434;28.338;2022-08-19T12:57:00;99202.88;;;35.19;100.00
26087;BME280;13851;43.434;28.338;2022-08-19T12:59:29;99363.78;;;36.37;100.00